createdAt,value
2022-08-25T00:02:27.093Z,11.90
2022-08-25T00:05:13.937Z,15.05
2022-08-25T00:08:02.736Z,18.60
2022-08-25T00:11:03.243Z,12.60
2022-08-25T00:13:54.140Z,19.95
2022-08-25T00:16:41.004Z,12.18
2022-08-25T00:19:32.196Z,14.48
2022-08-25T00:25:04.684Z,16.62
2022-08-25T00:27:51.571Z,11.02
2022-08-25T00:30:38.759Z,13.73
2022-08-25T00:33:26.326Z,11.38
2022-08-25T00:36:12.585Z,10.77
2022-08-25T00:38:59.295Z,14.18
2022-08-25T00:41:45.873Z,15.63
2022-08-25T00:44:33.290Z,12.50
2022-08-25T00:47:19.306Z,10.75
2022-08-25T00:50:08.572Z,14.07
2022-08-25T00:52:56.857Z,11.70
2022-08-25T00:55:43.250Z,15.50
2022-08-25T00:58:31.217Z,16.45
2022-08-25T01:01:17.878Z,14.07
2022-08-25T01:04:04.772Z,11.18
2022-08-25T01:06:53.729Z,14.63
2022-08-25T01:09:39.728Z,14.95
2022-08-25T01:12:28.402Z,16.52
2022-08-25T01:15:15.099Z,14.70
2022-08-25T01:18:02.260Z,12.35
2022-08-25T01:20:50.975Z,11.30
2022-08-25T01:23:37.544Z,14.23
2022-08-25T01:26:30.694Z,13.62
2022-08-25T01:29:25.617Z,15.10
2022-08-25T01:32:14.225Z,11.65
2022-08-25T01:35:00.902Z,14.57
2022-08-25T01:37:48.285Z,15.70
2022-08-25T01:40:35.805Z,10.52
2022-08-25T01:43:31.692Z,12.15
2022-08-25T01:46:18.028Z,16.60
2022-08-25T01:49:06.907Z,16.67
2022-08-25T01:52:01.472Z,13.82
2022-08-25T01:54:47.657Z,12.48
2022-08-25T01:57:34.126Z,14.60
2022-08-25T02:00:21.354Z,14.57
2022-08-25T02:03:15.718Z,15.75
2022-08-25T02:06:05.463Z,11.93
2022-08-25T02:08:58.435Z,13.75
2022-08-25T02:11:46.630Z,12.90
2022-08-25T02:14:32.916Z,16.33
2022-08-25T02:17:19.361Z,15.10
2022-08-25T02:20:06.955Z,13.35
2022-08-25T02:22:57.056Z,9.45
2022-08-25T02:25:43.463Z,13.88
2022-08-25T02:28:30.053Z,13.82
2022-08-25T02:31:17.686Z,10.40
2022-08-25T02:34:05.092Z,12.52
2022-08-25T02:36:51.748Z,13.23
2022-08-25T02:39:38.057Z,13.45
2022-08-25T02:42:24.815Z,21.08
2022-08-25T02:45:11.262Z,18.45
2022-08-25T02:47:57.670Z,13.70
2022-08-25T02:50:52.622Z,12.50
2022-08-25T02:53:41.866Z,14.25
2022-08-25T02:56:29.389Z,14.95
2022-08-25T02:59:17.943Z,13.52
2022-08-25T03:02:04.553Z,13.27
2022-08-25T03:04:52.315Z,11.43
2022-08-25T03:07:41.158Z,13.93
2022-08-25T03:10:28.156Z,11.98
2022-08-25T03:13:14.574Z,11.70
2022-08-25T03:16:03.333Z,14.65
2022-08-25T03:18:50.473Z,11.90
2022-08-25T03:21:38.975Z,14.27
2022-08-25T03:24:25.816Z,17.30
2022-08-25T03:27:12.506Z,11.40
2022-08-25T03:29:58.896Z,14.68
2022-08-25T03:32:45.332Z,14.05
2022-08-25T03:35:31.763Z,17.55
2022-08-25T03:38:19.701Z,13.57
2022-08-25T03:41:21.560Z,16.48
2022-08-25T03:44:10.031Z,12.30
2022-08-25T03:46:55.980Z,13.68
2022-08-25T03:49:42.359Z,12.30
2022-08-25T03:52:28.609Z,10.98
2022-08-25T03:55:15.071Z,12.82
2022-08-25T03:58:01.370Z,14.10
2022-08-25T04:00:47.758Z,13.10
2022-08-25T04:03:34.168Z,14.02
2022-08-25T04:06:22.115Z,13.02
2022-08-25T04:09:09.484Z,15.30
2022-08-25T04:11:55.603Z,11.40
2022-08-25T04:14:42.806Z,16.23
2022-08-25T04:17:29.232Z,18.60
2022-08-25T04:20:15.977Z,13.65
2022-08-25T04:23:01.924Z,16.70
2022-08-25T04:25:48.181Z,17.75
2022-08-25T04:28:34.506Z,16.33
2022-08-25T04:31:22.114Z,14.45
2022-08-25T04:34:14.776Z,20.27
2022-08-25T04:37:15.034Z,19.12
2022-08-25T04:40:02.031Z,13.95
2022-08-25T04:42:48.299Z,14.48
2022-08-25T04:45:39.773Z,15.93
2022-08-25T04:51:15.461Z,17.80
2022-08-25T04:54:05.455Z,12.15
2022-08-25T04:56:54.023Z,16.23
2022-08-25T04:59:40.909Z,13.70
2022-08-25T05:02:27.947Z,18.83
2022-08-25T05:05:14.482Z,20.95
2022-08-25T05:08:00.772Z,15.43
2022-08-25T05:10:47.209Z,16.70
2022-08-25T05:13:34.791Z,14.13
2022-08-25T05:16:22.855Z,22.08
2022-08-25T05:19:09.261Z,14.50
2022-08-25T05:21:57.719Z,15.57
2022-08-25T05:24:44.352Z,21.30
2022-08-25T05:27:30.553Z,19.45
2022-08-25T05:30:17.037Z,14.32
2022-08-25T05:33:04.136Z,15.95
2022-08-25T05:35:50.249Z,23.87
2022-08-25T05:38:38.004Z,16.27
2022-08-25T05:41:28.814Z,17.60
2022-08-25T05:49:53.568Z,17.27
2022-08-25T05:52:40.026Z,16.50
2022-08-25T05:55:26.268Z,21.30
2022-08-25T05:58:12.677Z,18.08
2022-08-25T06:01:21.159Z,17.33
2022-08-25T06:04:07.782Z,16.65
2022-08-25T06:06:54.973Z,16.20
2022-08-25T06:09:42.030Z,19.40
2022-08-25T06:12:28.545Z,17.75
2022-08-25T06:15:17.409Z,14.05
2022-08-25T06:18:03.909Z,23.73
2022-08-25T06:20:51.009Z,15.60
2022-08-25T06:23:37.745Z,14.25
2022-08-25T06:26:24.190Z,15.02
2022-08-25T06:29:10.712Z,14.43
2022-08-25T06:31:57.166Z,17.27
2022-08-25T06:34:43.444Z,21.83
2022-08-25T06:37:30.034Z,15.27
2022-08-25T06:40:17.048Z,14.57
2022-08-25T06:43:06.810Z,11.38
2022-08-25T06:45:52.934Z,14.13
2022-08-25T06:48:39.563Z,14.05
2022-08-25T06:51:27.591Z,13.57
2022-08-25T06:54:14.257Z,11.18
2022-08-25T06:57:00.824Z,11.50
2022-08-25T06:59:47.922Z,9.65
2022-08-25T07:02:39.831Z,11.15
2022-08-25T07:05:40.665Z,10.75
2022-08-25T07:08:29.181Z,10.98
2022-08-25T07:11:17.443Z,14.05
2022-08-25T07:14:05.293Z,12.10
2022-08-25T07:16:51.638Z,16.30
2022-08-25T07:19:38.117Z,14.00
2022-08-25T07:22:24.448Z,14.40
2022-08-25T07:25:11.920Z,10.40
2022-08-25T07:27:59.039Z,14.65
2022-08-25T07:30:45.490Z,14.40
2022-08-25T07:33:38.489Z,11.20
2022-08-25T07:36:25.347Z,17.00
2022-08-25T07:39:11.858Z,15.52
2022-08-25T07:41:58.701Z,15.02
2022-08-25T07:44:45.028Z,14.18
2022-08-25T07:47:31.691Z,12.48
2022-08-25T07:50:18.563Z,15.68
2022-08-25T07:53:06.025Z,16.67
2022-08-25T07:55:53.559Z,12.43
2022-08-25T07:58:40.827Z,11.38
2022-08-25T08:01:27.212Z,15.15
2022-08-25T08:04:13.737Z,12.60
2022-08-25T08:07:02.579Z,11.18
2022-08-25T08:09:56.170Z,13.02
2022-08-25T08:12:52.649Z,13.82
2022-08-25T08:15:42.915Z,6.40
2022-08-25T08:18:29.492Z,9.17
2022-08-25T08:21:19.321Z,8.63
2022-08-25T08:24:14.819Z,10.20
2022-08-25T08:27:13.206Z,10.52
2022-08-25T08:29:59.514Z,10.48
2022-08-25T08:33:08.702Z,10.77
2022-08-25T08:36:00.122Z,10.70
2022-08-25T08:38:52.381Z,8.63
2022-08-25T08:42:18.529Z,9.80
2022-08-25T08:45:26.993Z,8.05
2022-08-25T08:48:25.447Z,8.35
2022-08-25T08:51:32.680Z,9.45
2022-08-25T08:54:25.186Z,8.85
2022-08-25T08:57:16.694Z,9.85
2022-08-25T09:00:05.923Z,9.35
2022-08-25T09:03:05.341Z,9.38
2022-08-25T09:05:55.333Z,8.27
2022-08-25T09:08:44.983Z,8.23
2022-08-25T09:11:38.322Z,8.07
2022-08-25T09:14:56.310Z,9.25
2022-08-25T09:18:11.997Z,9.45
2022-08-25T09:21:13.068Z,8.20
2022-08-25T09:24:34.594Z,10.60
2022-08-25T09:27:39.719Z,9.27
2022-08-25T09:30:28.012Z,6.70
2022-08-25T09:33:21.165Z,10.50
2022-08-25T09:36:08.768Z,10.32
2022-08-25T09:38:55.525Z,6.80
2022-08-25T09:41:51.569Z,12.37
2022-08-25T09:44:43.570Z,7.25
2022-08-25T09:47:30.030Z,6.93
2022-08-25T09:50:20.121Z,8.15
2022-08-25T09:53:18.540Z,10.05
2022-08-25T09:56:07.499Z,8.82
2022-08-25T09:58:54.852Z,6.97
2022-08-25T10:01:59.367Z,8.23
2022-08-25T10:04:46.647Z,6.03
2022-08-25T10:07:37.127Z,8.18
2022-08-25T10:10:33.535Z,9.00
2022-08-25T10:13:23.506Z,8.25
2022-08-25T10:16:35.662Z,7.95
2022-08-25T10:19:22.306Z,8.32
2022-08-25T10:22:12.524Z,6.30
2022-08-25T10:24:59.535Z,7.22
2022-08-25T10:28:09.549Z,9.68
2022-08-25T10:31:11.015Z,6.62
2022-08-25T10:34:36.509Z,8.20
2022-08-25T10:37:49.831Z,8.35
2022-08-25T10:41:27.576Z,8.88
2022-08-25T10:45:00.330Z,5.78
2022-08-25T10:47:53.802Z,7.15
2022-08-25T10:50:49.124Z,10.50
2022-08-25T10:54:04.247Z,9.68
2022-08-25T10:57:01.426Z,8.48
2022-08-25T10:59:48.568Z,7.43
2022-08-25T11:03:00.498Z,9.80
2022-08-25T11:05:55.590Z,7.97
2022-08-25T11:08:52.790Z,6.47
2022-08-25T11:11:47.477Z,9.55
2022-08-25T11:14:46.954Z,9.15
2022-08-25T11:18:14.017Z,7.35
2022-08-25T11:21:14.917Z,7.97
2022-08-25T11:24:22.916Z,10.87
2022-08-25T11:27:15.817Z,6.28
2022-08-25T11:30:08.781Z,11.25
2022-08-25T11:32:55.758Z,8.00
2022-08-25T11:35:53.379Z,6.22
2022-08-25T11:38:58.184Z,9.30
2022-08-25T11:42:07.726Z,8.73
2022-08-25T11:45:22.275Z,9.60
2022-08-25T11:48:12.069Z,6.68
2022-08-25T11:51:11.244Z,7.80
2022-08-25T11:54:30.646Z,7.28
2022-08-25T11:57:18.545Z,10.48
2022-08-25T12:00:16.307Z,9.32
2022-08-25T12:03:37.077Z,6.32
2022-08-25T12:06:30.273Z,6.87
2022-08-25T12:09:19.325Z,9.57
2022-08-25T12:12:28.613Z,9.40
2022-08-25T12:15:24.251Z,8.48
2022-08-25T12:18:21.096Z,11.12
2022-08-25T12:21:07.300Z,11.18
2022-08-25T12:24:14.230Z,7.97
2022-08-25T12:27:02.865Z,10.82
2022-08-25T12:30:14.406Z,10.65
2022-08-25T12:33:16.163Z,10.10
2022-08-25T12:36:05.268Z,9.73
2022-08-25T12:38:53.007Z,8.23
2022-08-25T12:41:54.513Z,9.15
2022-08-25T12:44:42.563Z,9.68
2022-08-25T12:47:33.841Z,9.25
2022-08-25T12:50:33.341Z,6.40
2022-08-25T12:53:39.196Z,13.88
2022-08-25T12:56:39.570Z,9.68
2022-08-25T12:59:36.730Z,12.07
2022-08-25T13:02:33.030Z,8.63
2022-08-25T13:05:25.542Z,8.00
2022-08-25T13:08:27.559Z,11.75
2022-08-25T13:11:40.832Z,9.07
2022-08-25T13:14:33.486Z,9.02
2022-08-25T13:17:33.774Z,6.50
2022-08-25T13:20:25.739Z,9.45
2022-08-25T13:23:12.337Z,8.35
2022-08-25T13:25:58.658Z,8.93
2022-08-25T13:28:51.924Z,9.38
2022-08-25T13:31:51.110Z,10.52
2022-08-25T13:34:42.787Z,9.20
2022-08-25T13:37:30.586Z,10.05
2022-08-25T13:40:29.833Z,10.68
2022-08-25T13:43:17.502Z,11.98
2022-08-25T13:46:08.651Z,10.63
2022-08-25T13:49:05.854Z,11.02
2022-08-25T13:51:54.309Z,9.52
2022-08-25T13:54:42.033Z,7.62
2022-08-25T13:57:31.602Z,8.88
2022-08-25T14:00:34.576Z,8.03
2022-08-25T14:03:35.318Z,9.27
2022-08-25T14:09:18.442Z,7.75
2022-08-25T14:12:38.112Z,7.37
2022-08-25T14:15:24.371Z,10.15
2022-08-25T14:18:29.630Z,13.27
2022-08-25T14:21:16.762Z,8.30
2022-08-25T14:24:06.529Z,12.32
2022-08-25T14:26:54.605Z,12.13
2022-08-25T14:29:41.298Z,12.18
2022-08-25T14:32:27.909Z,11.90
2022-08-25T14:35:17.460Z,12.45
2022-08-25T14:38:11.110Z,12.23
2022-08-25T14:40:59.272Z,11.00
2022-08-25T14:43:46.105Z,10.02
2022-08-25T14:46:36.402Z,10.80
2022-08-25T14:49:33.775Z,9.90
2022-08-25T14:52:26.627Z,9.45
2022-08-25T14:55:13.100Z,9.75
2022-08-25T14:58:09.984Z,12.52
2022-08-25T15:00:57.626Z,11.75
2022-08-25T15:03:47.800Z,11.55
2022-08-25T15:06:36.417Z,12.23
2022-08-25T15:09:22.818Z,9.32
2022-08-25T15:12:10.668Z,9.52
2022-08-25T15:14:58.329Z,12.15
2022-08-25T15:17:45.459Z,8.23
2022-08-25T15:20:31.729Z,13.38
2022-08-25T15:23:19.351Z,8.48
2022-08-25T15:26:06.152Z,8.73
2022-08-25T15:28:53.571Z,9.68
2022-08-25T15:31:40.123Z,9.35
2022-08-25T15:34:26.674Z,11.40
2022-08-25T15:37:15.646Z,11.95
2022-08-25T15:40:02.680Z,10.98
2022-08-25T15:42:53.389Z,11.05
2022-08-25T15:45:42.540Z,9.70
2022-08-25T15:48:28.976Z,10.80
2022-08-25T15:51:16.473Z,11.05
2022-08-25T15:54:02.705Z,14.27
2022-08-25T15:56:49.158Z,15.43
2022-08-25T15:59:35.514Z,9.80
2022-08-25T16:02:22.604Z,12.70
2022-08-25T16:05:11.006Z,8.75
2022-08-25T16:07:56.997Z,8.73
2022-08-25T16:10:43.768Z,7.68
2022-08-25T16:13:29.906Z,9.25
2022-08-25T16:16:16.544Z,12.02
2022-08-25T16:19:03.910Z,9.95
2022-08-25T16:21:50.408Z,7.97
2022-08-25T16:24:40.101Z,7.62
2022-08-25T16:27:28.557Z,7.50
2022-08-25T16:30:25.150Z,12.55
2022-08-25T16:33:11.496Z,8.40
2022-08-25T16:36:23.675Z,10.98
2022-08-25T16:39:11.361Z,8.23
2022-08-25T16:41:57.660Z,10.13
2022-08-25T16:44:44.888Z,11.05
2022-08-25T16:47:31.222Z,9.20
2022-08-25T16:50:17.650Z,12.20
2022-08-25T16:53:23.951Z,6.82
2022-08-25T16:56:11.501Z,9.77
2022-08-25T16:58:59.633Z,10.10
2022-08-25T17:01:45.922Z,11.55
2022-08-25T17:04:32.600Z,12.23
2022-08-25T17:07:23.723Z,9.50
2022-08-25T17:10:12.716Z,10.45
2022-08-25T17:12:59.332Z,11.68
2022-08-25T17:15:48.628Z,12.95
2022-08-25T17:18:39.037Z,9.48
2022-08-25T17:21:27.971Z,13.52
2022-08-25T17:24:14.389Z,8.32
2022-08-25T17:27:02.019Z,11.02
2022-08-25T17:29:48.834Z,11.38
2022-08-25T17:32:35.292Z,10.48
2022-08-25T17:35:23.520Z,11.82
2022-08-25T17:38:10.989Z,10.60
2022-08-25T17:41:03.480Z,12.52
2022-08-25T17:43:51.456Z,9.50
2022-08-25T17:46:40.787Z,11.68
2022-08-25T17:49:33.768Z,9.93
2022-08-25T17:52:23.568Z,7.45
2022-08-25T17:55:11.998Z,8.57
2022-08-25T17:57:58.791Z,11.40
2022-08-25T18:00:46.327Z,11.38
2022-08-25T18:03:33.652Z,10.73
2022-08-25T18:06:21.111Z,9.73
2022-08-25T18:09:09.675Z,10.80
2022-08-25T18:11:56.463Z,10.15
2022-08-25T18:14:42.960Z,9.68
2022-08-25T18:17:32.701Z,8.43
2022-08-25T18:20:20.218Z,13.62
2022-08-25T18:23:09.785Z,9.95
2022-08-25T18:26:00.707Z,11.23
2022-08-25T18:28:47.474Z,10.80
2022-08-25T18:31:34.997Z,10.70
2022-08-25T18:34:24.020Z,10.05
2022-08-25T18:37:28.766Z,10.60
2022-08-25T18:40:24.167Z,11.98
2022-08-25T18:43:12.702Z,10.63
2022-08-25T18:45:59.592Z,14.38
2022-08-25T18:48:46.168Z,11.65
2022-08-25T18:51:33.030Z,11.65
2022-08-25T18:54:23.706Z,13.82
2022-08-25T18:57:10.354Z,11.80
2022-08-25T18:59:57.185Z,11.90
2022-08-25T19:02:51.236Z,10.73
2022-08-25T19:05:41.354Z,12.70
2022-08-25T19:08:31.531Z,14.75
2022-08-25T19:11:22.429Z,10.95
2022-08-25T19:14:12.406Z,9.35
2022-08-25T19:16:59.416Z,10.70
2022-08-25T19:19:47.010Z,12.68
2022-08-25T19:22:41.648Z,12.13
2022-08-25T19:25:32.981Z,13.10
2022-08-25T19:28:21.418Z,10.85
2022-08-25T19:31:08.289Z,16.30
2022-08-25T19:33:55.893Z,13.62
2022-08-25T19:36:43.597Z,11.00
2022-08-25T19:39:30.767Z,8.40
2022-08-25T19:42:37.233Z,12.23
2022-08-25T19:45:23.641Z,10.73
2022-08-25T19:48:11.290Z,10.32
2022-08-25T19:50:57.922Z,13.27
2022-08-25T19:53:44.340Z,14.02
2022-08-25T19:56:32.596Z,11.50
2022-08-25T19:59:20.064Z,9.02
2022-08-25T20:02:11.847Z,13.75
2022-08-25T20:04:59.984Z,11.57
2022-08-25T20:07:45.972Z,9.73
2022-08-25T20:10:36.653Z,10.88
2022-08-25T20:13:28.276Z,10.98
2022-08-25T20:16:14.644Z,12.30
2022-08-25T20:19:01.129Z,13.32
2022-08-25T20:21:50.324Z,14.07
2022-08-25T20:24:49.439Z,11.20
2022-08-25T20:27:43.975Z,11.57
2022-08-25T20:30:30.536Z,11.43
2022-08-25T20:33:22.891Z,14.38
2022-08-25T20:36:09.759Z,12.75
2022-08-25T20:38:55.997Z,11.63
2022-08-25T20:41:48.188Z,10.32
2022-08-25T20:44:41.364Z,15.32
2022-08-25T20:47:28.205Z,11.20
2022-08-25T20:50:15.158Z,12.13
2022-08-25T20:53:01.555Z,9.00
2022-08-25T20:55:48.230Z,11.05
2022-08-25T20:58:36.572Z,12.68
2022-08-25T21:01:37.724Z,11.32
2022-08-25T21:04:25.951Z,8.70
2022-08-25T21:07:12.386Z,10.95
2022-08-25T21:09:59.197Z,10.38
2022-08-25T21:12:45.661Z,15.70
2022-08-25T21:15:32.166Z,8.88
2022-08-25T21:18:18.278Z,11.52
2022-08-25T21:21:15.544Z,13.30
2022-08-25T21:24:05.223Z,11.27
2022-08-25T21:29:44.675Z,12.18
2022-08-25T21:32:41.251Z,8.93
2022-08-25T21:35:40.992Z,11.50
2022-08-25T21:38:29.373Z,11.48
2022-08-25T21:41:19.911Z,8.40
2022-08-25T21:44:07.373Z,10.40
2022-08-25T21:46:54.419Z,11.60
2022-08-25T21:49:41.114Z,11.07
2022-08-25T21:52:27.376Z,13.00
2022-08-25T21:55:15.988Z,13.60
2022-08-25T21:58:02.842Z,13.60
2022-08-25T22:00:49.895Z,11.48
2022-08-25T22:03:36.943Z,11.60
2022-08-25T22:06:25.233Z,9.63
2022-08-25T22:09:13.276Z,9.40
2022-08-25T22:11:59.971Z,13.38
2022-08-25T22:14:46.548Z,11.73
2022-08-25T22:17:33.497Z,12.65
2022-08-25T22:20:20.064Z,13.45
2022-08-25T22:23:06.303Z,9.10
2022-08-25T22:25:53.317Z,9.85
2022-08-25T22:28:39.516Z,10.13
2022-08-25T22:31:30.721Z,12.48
2022-08-25T22:34:16.949Z,9.63
2022-08-25T22:37:05.029Z,9.95
2022-08-25T22:39:51.244Z,17.33
2022-08-25T22:42:38.929Z,12.88
2022-08-25T22:45:26.982Z,13.00
2022-08-25T22:48:13.543Z,10.88
2022-08-25T22:51:08.777Z,12.52
2022-08-25T22:53:55.236Z,15.60
2022-08-25T22:56:41.559Z,14.73
2022-08-25T22:59:28.563Z,11.25
2022-08-25T23:02:15.118Z,14.27
2022-08-25T23:05:02.394Z,10.07
2022-08-25T23:07:48.796Z,12.10
2022-08-25T23:10:35.193Z,11.02
2022-08-25T23:13:34.445Z,11.23
2022-08-25T23:16:21.495Z,10.02
2022-08-25T23:19:08.074Z,15.25
2022-08-25T23:22:10.608Z,12.13
2022-08-25T23:24:57.313Z,8.60
2022-08-25T23:27:43.657Z,11.93
2022-08-25T23:30:30.469Z,13.07
2022-08-25T23:33:18.812Z,11.10
2022-08-25T23:36:12.917Z,16.62
2022-08-25T23:38:59.892Z,9.75
2022-08-25T23:41:45.791Z,11.02
2022-08-25T23:44:32.282Z,9.55
2022-08-25T23:47:18.980Z,9.98
2022-08-25T23:50:06.351Z,8.82
2022-08-25T23:52:52.254Z,9.70
2022-08-25T23:55:39.098Z,11.45
2022-08-25T23:58:37.807Z,9.10
